Airfield :
LOGIN :

Register | Disclaimer

   EN    FR    IT 

 










Legend :    VFR   Marginal VFR   IFR   Intensive IFR   Very Intensive IFR
Visi :
Ceiling :
>= 8 km
>= 3000ft
5 to 8 km
1000 to 3000 ft
1500m to 5 km
500 to 1000 ft
800 to 1500m
200 to 500 ft
< 800m
< 200 ft
Symbols :   Thunderstorms  Fog  Heavy snow  Heavy precipitations  Wind > 20 kt
SIGMETs :     Misc.  Thunderstorms  Icing  Turbulence  Mountain Waves  Volcanic Ashes







- Airport Elevation : 100 ft


EBDT - Schaffen

CURRENT METAR :
  • 211525Z 22008KT 9999 BR SCT014 BKN025 10/08 Q1012 GRN GRN TEMPO YLO

EXPIRED METARs :
  • 211455Z 22008KT 9999 BR SCT012 BKN020 10/08 Q1012 GRN GRN TEMPO YLO
  • 211425Z 21008KT 8000 BR SCT010 OVC015 10/08 Q1012 GRN GRN TEMPO YLO
  • 211355Z 21007KT 8000 BR SCT010 OVC015 10/08 Q1012 GRN GRN TEMPO YLO
  • 211325Z 21007KT 8000 BR SCT007 OVC013 10/08 Q1012 GRN GRN TEMPO YLO
  • 211255Z 22008KT 8000 BR SCT007 OVC013 10/09 Q1013 GRN GRN TEMPO YLO

TAF TAF EBDT
Valid from the 21 at 13:00 until the 21 at 22:00 UTC


211141Z 2113/2122 24010G20KT 8000 SCT007 BKN010
BECMG 2113/2115 FEW010 BKN015
TEMPO 2113/2122 SCT009 BKN013
No reported NOTAMs for that airfield.



MET'MAP, your aeronautical weather chart ! - Copyright ORBIFLY December 2007 - Disclaimer

ORBIFLY MET'MAP TEAM :

Programming & Development : Alexandra Zaïnal
Concept & Development : Baudouin d'Aumeries
Co-Development & Prog : Marc-Olivier Méhu
Technical & hardware support : Manuel Goepfert

Contact : metmap@orbifly.com




SOURCES & CREDITS :

   NOAA